Time;durP1;ratioP1;P1;durP2;ratioP2;P2;SDS_P1;SDS_P2;PMS_P1;PMS_P2;Temp;Humidity;BMP_temperature;BMP_pressure;BME280_temperature;BME280_humidity;BME280_pressure;Samples;Min_cycle;Max_cycle;Signal;HPM_P1;HPM_P2
2022/02/01 00:00:41;;;;;;;40.55;17.80;;;1.60;95.50;;;;;;4986393;28;20041;-72
2022/02/01 00:03:09;;;;;;;38.70;16.85;;;1.70;95.50;;;;;;4986055;28;20026;-72
2022/02/01 00:08:18;;;;;;;40.83;16.98;;;1.80;95.50;;;;;;4990730;28;20106;-72
2022/02/01 00:10:55;;;;;;;34.90;15.98;;;1.80;95.60;;;;;;4975785;28;20046;-72
2022/02/01 00:37:18;;;;;;;25.25;10.43;;;2.00;96.00;;;;;;4988509;28;20030;-72
2022/02/01 00:39:44;;;;;;;;;;;2.00;96.00;;;;;;4995348;28;20464;-72
2022/02/01 00:42:11;;;;;;;25.23;11.20;;;2.10;96.10;;;;;;4985679;28;20008;-72
2022/02/01 00:44:38;;;;;;;21.67;10.40;;;2.10;96.10;;;;;;4996906;28;20080;-72
2022/02/01 00:47:06;;;;;;;34.20;11.27;;;2.10;96.10;;;;;;4990191;28;20484;-72
2022/02/01 00:49:33;;;;;;;30.63;11.27;;;2.10;96.10;;;;;;5008506;28;20038;-72
2022/02/01 00:52:00;;;;;;;21.25;10.27;;;2.10;96.10;;;;;;4982494;28;20517;-72
2022/02/01 00:54:26;;;;;;;28.65;10.70;;;2.10;96.20;;;;;;4992505;28;20042;-71
2022/02/01 00:56:52;;;;;;;29.92;10.15;;;2.20;96.20;;;;;;4997149;28;20030;-72
2022/02/01 00:59:17;;;;;;;22.27;9.73;;;2.20;96.00;;;;;;4995867;28;20038;-72
2022/02/01 01:01:43;;;;;;;23.08;9.50;;;2.20;96.00;;;;;;4990888;28;20026;-72
2022/02/01 01:04:08;;;;;;;21.52;8.93;;;2.20;96.00;;;;;;4993190;28;20071;-72
2022/02/01 01:06:34;;;;;;;19.85;8.65;;;2.20;95.90;;;;;;4986924;28;20026;-72
2022/02/01 01:08:59;;;;;;;23.23;7.90;;;2.20;95.80;;;;;;4990076;28;20023;-72
2022/02/01 01:11:25;;;;;;;25.30;7.47;;;2.30;95.80;;;;;;4994238;28;20034;-72
2022/02/01 01:14:24;;;;;;;21.38;8.32;;;2.30;95.70;;;;;;4997131;28;20065;-72
2022/02/01 01:43:51;;;;;;;23.73;6.13;;;2.30;95.40;;;;;;5005378;28;20033;-72
2022/02/01 01:54:18;;;;;;;19.10;4.95;;;2.20;95.40;;;;;;5004782;28;20041;-72
2022/02/01 01:56:44;;;;;;;19.30;3.47;;;2.20;95.40;;;;;;4994019;28;20026;-72
2022/02/01 01:59:11;;;;;;;13.50;4.38;;;2.20;95.40;;;;;;4993785;28;20038;-71
2022/02/01 02:01:40;;;;;;;15.00;3.92;;;2.30;95.40;;;;;;4994364;28;20054;-72
2022/02/01 02:04:06;;;;;;;14.45;3.47;;;2.20;95.30;;;;;;5003839;28;20022;-72
2022/02/01 02:06:32;;;;;;;16.65;2.70;;;2.20;95.30;;;;;;4989753;28;20260;-72
2022/02/01 02:09:00;;;;;;;14.43;3.25;;;2.30;95.20;;;;;;4987829;28;20045;-71
2022/02/01 02:11:43;;;;;;;20.67;3.47;;;2.30;95.20;;;;;;4983016;28;20038;-72
2022/02/01 02:14:22;;;;;;;16.35;3.90;;;2.30;95.20;;;;;;4992812;28;20080;-71
2022/02/01 02:16:57;;;;;;;16.70;3.38;;;2.20;95.20;;;;;;4986663;28;20343;-72
2022/02/01 02:19:25;;;;;;;17.30;2.60;;;2.20;95.30;;;;;;4982427;28;20026;-72
2022/02/01 02:21:53;;;;;;;17.30;3.20;;;2.20;95.20;;;;;;4984404;28;20085;-72
2022/02/01 02:24:20;;;;;;;20.23;2.42;;;2.10;95.10;;;;;;4978067;28;20054;-72
2022/02/01 02:26:46;;;;;;;14.82;2.50;;;2.10;95.10;;;;;;4985833;28;20034;-72
2022/02/01 02:29:12;;;;;;;16.30;2.80;;;2.10;94.90;;;;;;4977680;28;20457;-71
2022/02/01 02:31:39;;;;;;;15.10;2.60;;;2.10;94.80;;;;;;4985263;28;20022;-72
2022/02/01 02:34:09;;;;;;;17.80;2.50;;;2.10;94.60;;;;;;4977676;28;20081;-72
2022/02/01 02:36:39;;;;;;;22.10;3.40;;;2.20;94.30;;;;;;4993062;28;20034;-72
2022/02/01 02:39:13;;;;;;;17.35;2.80;;;2.10;94.10;;;;;;4978613;28;20026;-72
2022/02/01 02:41:50;;;;;;;15.57;2.25;;;2.10;94.00;;;;;;4986570;28;20038;-72
2022/02/01 02:47:03;;;;;;;19.83;2.28;;;2.20;93.50;;;;;;4999581;28;20087;-72
2022/02/01 02:49:29;;;;;;;17.58;2.35;;;2.10;93.50;;;;;;5003706;28;20077;-71
2022/02/01 02:51:54;;;;;;;13.25;2.70;;;2.10;93.50;;;;;;4990893;28;20038;-72
2022/02/01 02:54:22;;;;;;;27.38;3.03;;;2.20;93.60;;;;;;4994674;28;20084;-72
2022/02/01 02:56:51;;;;;;;18.25;2.42;;;2.20;93.60;;;;;;4996457;28;20461;-72
2022/02/01 02:59:17;;;;;;;19.02;2.78;;;2.20;93.60;;;;;;4992747;28;20335;-71
2022/02/01 03:01:49;;;;;;;17.60;2.92;;;2.20;93.60;;;;;;4991688;28;20046;-72
2022/02/01 03:04:16;;;;;;;18.20;3.00;;;2.20;93.70;;;;;;4992681;28;20038;-72
2022/02/01 03:06:42;;;;;;;13.27;2.83;;;2.20;93.80;;;;;;4983257;28;20070;-71
2022/02/01 03:09:09;;;;;;;21.50;3.35;;;2.30;93.70;;;;;;4992054;28;20530;-72
2022/02/01 03:11:35;;;;;;;12.65;2.90;;;2.20;93.70;;;;;;4998292;28;20061;-72
2022/02/01 03:14:04;;;;;;;14.52;2.55;;;2.30;93.70;;;;;;4995117;28;20076;-72
2022/02/01 03:16:49;;;;;;;20.38;3.40;;;2.30;93.70;;;;;;4966431;28;1008736;-72
2022/02/01 03:21:59;;;;;;;21.17;2.88;;;2.30;93.50;;;;;;4990338;28;20030;-72
2022/02/01 03:24:25;;;;;;;17.23;2.33;;;2.30;93.40;;;;;;4998493;28;20038;-72
2022/02/01 03:26:50;;;;;;;11.73;2.10;;;2.30;93.30;;;;;;4997505;28;20485;-72
2022/02/01 03:29:16;;;;;;;17.67;2.70;;;2.30;93.10;;;;;;5001899;28;20022;-72
2022/02/01 03:31:42;;;;;;;15.80;2.58;;;2.30;93.10;;;;;;4993676;28;20064;-72
2022/02/01 03:34:07;;;;;;;15.00;2.33;;;2.20;93.10;;;;;;4995704;28;20026;-72
2022/02/01 03:36:33;;;;;;;20.45;2.95;;;2.20;92.90;;;;;;4998281;28;20027;-72
2022/02/01 03:39:00;;;;;;;16.70;2.17;;;2.30;92.50;;;;;;5001723;28;20054;-72
2022/02/01 03:41:26;;;;;;;21.90;3.00;;;2.30;92.20;;;;;;4994972;28;20026;-72
2022/02/01 03:43:52;;;;;;;17.40;2.67;;;2.30;92.10;;;;;;4985769;28;20458;-72
2022/02/01 03:46:17;;;;;;;9.38;2.03;;;2.30;91.90;;;;;;4992673;28;20045;-72
2022/02/01 03:48:43;;;;;;;14.73;2.60;;;2.30;91.90;;;;;;5007289;28;20026;-72
2022/02/01 03:51:09;;;;;;;17.90;2.28;;;2.20;91.90;;;;;;5003022;28;20025;-72
2022/02/01 03:53:35;;;;;;;18.42;3.03;;;2.20;92.10;;;;;;5001607;28;20033;-72
2022/02/01 03:56:02;;;;;;;15.02;2.33;;;2.20;92.20;;;;;;4988822;28;20489;-72
2022/02/01 03:58:27;;;;;;;16.25;2.28;;;2.10;92.10;;;;;;4998555;28;20026;-72
2022/02/01 04:00:53;;;;;;;20.17;2.78;;;2.10;92.10;;;;;;4994708;28;20030;-72
2022/02/01 04:03:18;;;;;;;14.30;2.35;;;2.10;92.10;;;;;;5000275;28;20514;-72
2022/02/01 04:05:44;;;;;;;16.98;2.80;;;2.10;92.10;;;;;;5003694;28;20041;-72
2022/02/01 04:08:12;;;;;;;18.05;2.35;;;2.10;92.00;;;;;;4999252;28;20034;-72
2022/02/01 04:10:37;;;;;;;17.90;2.67;;;2.10;92.00;;;;;;4992007;28;20018;-72
2022/02/01 04:13:04;;;;;;;22.70;2.80;;;2.10;92.00;;;;;;4998930;28;20485;-72
2022/02/01 04:15:30;;;;;;;23.58;2.75;;;2.00;92.10;;;;;;4991138;28;20152;-72
2022/02/01 04:17:56;;;;;;;22.77;2.75;;;2.10;92.10;;;;;;4991344;28;20434;-72
2022/02/01 04:20:22;;;;;;;11.80;2.42;;;2.00;92.10;;;;;;4989686;28;20402;-72
2022/02/01 04:22:47;;;;;;;19.83;2.72;;;2.00;92.20;;;;;;4999696;28;20026;-72
2022/02/01 04:25:13;;;;;;;22.13;2.85;;;2.00;92.20;;;;;;4998797;28;20077;-72
2022/02/01 04:27:39;;;;;;;14.60;2.72;;;2.00;92.30;;;;;;4992636;28;20019;-72
2022/02/01 04:30:07;;;;;;;22.75;2.67;;;2.00;92.20;;;;;;5000259;28;20026;-72
2022/02/01 04:32:40;;;;;;;13.77;2.25;;;2.00;92.20;;;;;;4991316;28;20022;-72
2022/02/01 04:35:18;;;;;;;24.02;3.90;;;2.10;92.00;;;;;;4991686;28;20041;-72
2022/02/01 04:37:44;;;;;;;27.48;3.33;;;2.10;91.80;;;;;;4977094;28;20092;-72
2022/02/01 04:40:13;;;;;;;19.80;2.63;;;2.10;91.70;;;;;;4992380;28;20105;-72
2022/02/01 04:42:40;;;;;;;19.67;2.80;;;2.10;91.50;;;;;;4994349;28;20085;-72
2022/02/01 04:45:09;;;;;;;26.75;2.85;;;2.10;91.50;;;;;;4992818;28;20030;-72
2022/02/01 04:47:35;;;;;;;11.40;1.95;;;2.10;91.50;;;;;;4998761;28;20014;-72
2022/02/01 04:50:04;;;;;;;12.75;2.47;;;2.10;91.50;;;;;;4991379;28;20033;-72
2022/02/01 04:52:30;;;;;;;17.17;2.17;;;2.10;91.50;;;;;;4997449;28;20026;-72
2022/02/01 04:54:56;;;;;;;15.63;2.35;;;2.10;91.60;;;;;;4995022;28;20034;-72
2022/02/01 04:57:22;;;;;;;18.27;2.97;;;2.10;91.40;;;;;;4978770;28;20022;-72
2022/02/01 04:59:48;;;;;;;13.45;2.72;;;2.10;91.50;;;;;;4992803;28;20116;-72
2022/02/01 05:02:13;;;;;;;12.55;2.08;;;2.10;91.50;;;;;;4991346;28;20034;-72
2022/02/01 05:04:39;;;;;;;16.80;2.53;;;2.10;91.50;;;;;;5003324;28;20043;-72
2022/02/01 05:07:04;;;;;;;14.38;1.92;;;2.10;91.60;;;;;;4987364;28;20022;-72
2022/02/01 05:09:31;;;;;;;18.10;2.30;;;2.10;91.60;;;;;;4989256;28;20381;-72
2022/02/01 05:11:59;;;;;;;18.85;1.98;;;2.10;91.70;;;;;;4990369;28;20113;-72
2022/02/01 05:14:27;;;;;;;14.45;2.17;;;2.10;91.60;;;;;;4995889;28;20027;-72
2022/02/01 05:19:44;;;;;;;11.75;2.08;;;2.10;91.60;;;;;;4988410;28;20478;-70
2022/02/01 05:22:13;;;;;;;;;;;2.10;91.70;;;;;;4993690;28;20097;-69
2022/02/01 05:24:40;;;;;;;12.90;2.67;;;2.10;91.70;;;;;;5003402;28;19920;-70
2022/02/01 05:27:10;;;;;;;19.08;2.15;;;2.10;91.80;;;;;;5000977;28;20026;-70
2022/02/01 05:29:37;;;;;;;12.00;2.10;;;2.10;91.90;;;;;;4994636;28;20065;-71
2022/02/01 05:32:22;;;;;;;8.43;2.10;;;2.10;91.80;;;;;;4993878;28;20112;-70
2022/02/01 05:34:49;;;;;;;15.20;2.35;;;2.10;91.70;;;;;;4995245;28;20033;-71
2022/02/01 05:37:14;;;;;;;13.38;2.28;;;2.10;91.80;;;;;;4991727;28;20034;-71
2022/02/01 05:39:40;;;;;;;12.35;2.38;;;2.10;91.90;;;;;;4999531;28;20355;-71
2022/02/01 05:42:06;;;;;;;13.55;2.00;;;2.10;92.00;;;;;;4990569;28;20359;-71
2022/02/01 05:44:31;;;;;;;14.75;2.20;;;2.10;92.00;;;;;;4997307;28;20042;-70
2022/02/01 05:46:57;;;;;;;15.35;2.63;;;2.10;91.90;;;;;;4993193;28;20034;-71
2022/02/01 05:49:22;;;;;;;20.75;2.92;;;2.10;92.00;;;;;;5001507;28;20026;-71
2022/02/01 05:51:50;;;;;;;16.77;2.35;;;2.10;92.00;;;;;;4990486;28;20073;-70
2022/02/01 05:54:16;;;;;;;15.50;2.55;;;2.10;92.10;;;;;;4994322;28;20025;-70
2022/02/01 05:56:41;;;;;;;16.23;2.67;;;2.10;92.10;;;;;;4989791;28;20247;-71
2022/02/01 05:59:07;;;;;;;17.05;2.58;;;2.10;92.10;;;;;;4994500;28;20031;-70
2022/02/01 06:01:32;;;;;;;11.30;1.80;;;2.10;92.20;;;;;;4989845;28;20402;-70
2022/02/01 06:03:58;;;;;;;14.90;1.85;;;2.10;92.20;;;;;;5001680;28;20040;-71
2022/02/01 06:06:23;;;;;;;11.52;2.00;;;2.10;92.30;;;;;;4988240;28;20042;-70
2022/02/01 06:08:49;;;;;;;16.17;2.17;;;2.10;92.40;;;;;;4979205;28;20081;-71
2022/02/01 06:11:14;;;;;;;17.23;2.30;;;2.10;92.50;;;;;;4984828;28;20041;-71
2022/02/01 06:13:40;;;;;;;14.23;2.47;;;2.10;92.50;;;;;;4992785;28;20060;-71
2022/02/01 06:16:06;;;;;;;16.75;2.55;;;2.10;92.50;;;;;;5000149;28;20046;-71
2022/02/01 06:18:32;;;;;;;9.55;2.40;;;2.10;92.50;;;;;;4977180;28;20075;-71
2022/02/01 06:21:00;;;;;;;19.40;3.03;;;2.10;92.70;;;;;;4980435;28;20030;-70
2022/02/01 06:23:26;;;;;;;21.25;2.90;;;2.10;92.70;;;;;;4985083;28;20085;-70
2022/02/01 06:25:53;;;;;;;15.55;3.05;;;2.10;92.70;;;;;;4977486;28;20043;-70
2022/02/01 06:28:21;;;;;;;14.93;2.17;;;2.10;92.70;;;;;;4986913;28;20050;-71
2022/02/01 06:30:47;;;;;;;19.80;3.58;;;2.20;92.70;;;;;;4979632;28;20462;-70
2022/02/01 06:33:13;;;;;;;11.02;2.67;;;2.20;92.70;;;;;;4994382;28;20027;-70
2022/02/01 06:35:39;;;;;;;12.40;2.67;;;2.20;92.80;;;;;;4986953;28;20458;-70
2022/02/01 06:38:05;;;;;;;14.98;2.75;;;2.30;92.70;;;;;;4988433;28;20113;-71
2022/02/01 06:40:30;;;;;;;20.95;3.00;;;2.30;92.70;;;;;;4992890;28;20033;-70
2022/02/01 06:42:56;;;;;;;17.38;2.35;;;2.30;92.70;;;;;;4982474;28;20047;-71
2022/02/01 06:45:28;;;;;;;14.50;2.88;;;2.30;92.80;;;;;;4982640;28;20077;-70
2022/02/01 06:47:55;;;;;;;14.40;2.97;;;2.40;92.80;;;;;;4983454;28;20027;-71
2022/02/01 06:50:22;;;;;;;14.98;2.22;;;2.40;92.80;;;;;;4981102;28;20381;-70
2022/02/01 06:52:54;;;;;;;16.73;2.53;;;2.30;92.90;;;;;;4985899;28;20025;-70
2022/02/01 06:55:31;;;;;;;16.25;3.08;;;2.40;92.90;;;;;;4982142;28;20149;-70
2022/02/01 06:57:58;;;;;;;16.90;3.10;;;2.40;92.90;;;;;;4978231;28;20030;-71
2022/02/01 07:00:23;;;;;;;8.60;2.00;;;2.40;92.90;;;;;;4986305;28;20049;-71
2022/02/01 07:02:49;;;;;;;16.33;2.67;;;2.50;92.90;;;;;;4991576;28;20038;-71
2022/02/01 07:05:14;;;;;;;12.02;2.22;;;2.40;92.90;;;;;;4982507;28;20457;-71
2022/02/01 07:07:40;;;;;;;17.50;3.45;;;2.50;93.00;;;;;;4984454;28;20030;-70
2022/02/01 07:10:06;;;;;;;18.98;2.88;;;2.50;92.90;;;;;;4982068;28;20471;-71
2022/02/01 07:12:31;;;;;;;12.13;2.30;;;2.50;93.00;;;;;;4992814;28;20029;-70
2022/02/01 07:14:57;;;;;;;13.30;2.50;;;2.60;93.00;;;;;;4987307;28;20447;-70
2022/02/01 07:17:22;;;;;;;18.58;3.53;;;2.60;92.80;;;;;;4988926;28;20113;-71
2022/02/01 07:19:48;;;;;;;9.00;3.03;;;2.60;92.90;;;;;;4982747;28;20066;-71
2022/02/01 07:22:13;;;;;;;16.05;3.50;;;2.60;93.00;;;;;;4985919;28;20026;-70
2022/02/01 07:24:51;;;;;;;13.10;3.45;;;2.60;93.20;;;;;;4983850;28;20030;-70
2022/02/01 07:27:33;;;;;;;13.00;3.00;;;2.60;93.40;;;;;;4987153;28;20027;-70
2022/02/01 07:29:59;;;;;;;12.00;2.70;;;2.60;93.60;;;;;;4999636;28;20045;-70
2022/02/01 07:32:25;;;;;;;17.05;3.08;;;2.60;93.70;;;;;;4990475;28;20101;-71
2022/02/01 07:34:50;;;;;;;15.50;3.35;;;2.60;93.80;;;;;;4983211;28;20042;-71
2022/02/01 07:37:16;;;;;;;7.57;2.35;;;2.60;93.90;;;;;;4979701;28;20030;-71
2022/02/01 07:39:41;;;;;;;10.10;2.65;;;2.60;93.80;;;;;;4980203;28;20027;-70
2022/02/01 07:42:07;;;;;;;9.35;1.90;;;2.60;93.90;;;;;;4989236;28;20038;-70
2022/02/01 07:44:32;;;;;;;14.20;2.78;;;2.60;93.90;;;;;;4989837;28;20042;-70
2022/02/01 07:46:58;;;;;;;14.13;2.75;;;2.60;93.90;;;;;;4976132;28;20510;-71
2022/02/01 07:49:23;;;;;;;10.00;2.42;;;2.60;94.00;;;;;;4987838;28;20022;-71
2022/02/01 07:51:49;;;;;;;13.35;2.53;;;2.60;94.00;;;;;;4987734;28;20462;-70
2022/02/01 07:54:14;;;;;;;9.27;2.38;;;2.60;93.90;;;;;;4984550;28;20033;-70
2022/02/01 07:56:40;;;;;;;9.20;2.30;;;2.60;93.90;;;;;;4977638;28;20113;-70
2022/02/01 07:59:05;;;;;;;9.90;2.47;;;2.60;94.00;;;;;;4989047;28;20053;-70
2022/02/01 08:01:31;;;;;;;22.67;3.00;;;2.60;94.00;;;;;;4988096;28;20113;-70
2022/02/01 08:03:56;;;;;;;15.70;3.03;;;2.60;94.10;;;;;;4983338;28;20370;-71
2022/02/01 08:06:21;;;;;;;12.13;2.28;;;2.60;94.10;;;;;;4986784;28;20042;-71
2022/02/01 08:08:47;;;;;;;14.45;3.13;;;2.60;94.20;;;;;;4991359;28;20037;-70
2022/02/01 08:11:15;;;;;;;10.52;2.38;;;2.60;94.20;;;;;;4976533;28;20530;-70
2022/02/01 08:14:41;;;;;;;10.32;2.53;;;2.60;94.30;;;;;;4986970;28;20034;-70
2022/02/01 08:16:50;;;;;;;11.60;3.10;;;2.60;94.20;;;;;;4983462;28;20042;-70
2022/02/01 08:19:27;;;;;;;10.63;2.20;;;2.70;94.30;;;;;;4980264;28;20054;-70
2022/02/01 08:21:54;;;;;;;13.50;2.92;;;2.70;94.20;;;;;;4981904;28;20026;-70
2022/02/01 08:24:19;;;;;;;14.15;2.80;;;2.70;94.10;;;;;;4986852;28;20068;-70
2022/02/01 08:26:46;;;;;;;11.65;2.35;;;2.80;94.10;;;;;;4987941;28;20034;-71
2022/02/01 08:29:13;;;;;;;12.63;2.47;;;2.80;94.00;;;;;;4988497;28;20038;-70
2022/02/01 08:31:39;;;;;;;11.57;2.70;;;2.80;93.90;;;;;;4998472;28;20031;-70
2022/02/01 08:34:06;;;;;;;18.60;3.22;;;2.90;93.90;;;;;;4984890;28;20034;-70
2022/02/01 08:36:31;;;;;;;12.20;2.08;;;2.90;93.80;;;;;;4981750;28;20089;-71
2022/02/01 08:38:57;;;;;;;11.15;2.55;;;2.90;93.70;;;;;;4991304;28;20022;-71
2022/02/01 08:41:22;;;;;;;11.00;1.75;;;3.00;93.60;;;;;;4980014;28;20458;-70
2022/02/01 08:43:48;;;;;;;12.00;3.30;;;3.00;93.60;;;;;;4984423;28;20133;-70
2022/02/01 08:46:14;;;;;;;9.40;2.20;;;3.00;93.40;;;;;;4985328;28;20041;-71
2022/02/01 08:48:40;;;;;;;10.07;2.72;;;3.10;93.30;;;;;;4982151;28;20113;-71
2022/02/01 08:51:08;;;;;;;14.23;3.22;;;3.10;93.20;;;;;;4983789;28;20109;-71
2022/02/01 08:53:46;;;;;;;11.45;2.30;;;3.10;93.10;;;;;;4978254;28;20057;-71
2022/02/01 08:57:21;;;;;;;10.70;2.67;;;3.20;92.90;;;;;;4976557;28;20027;-71
2022/02/01 08:58:58;;;;;;;13.25;2.88;;;3.20;92.80;;;;;;4978292;28;20037;-71
2022/02/01 09:01:23;;;;;;;9.13;2.28;;;3.30;92.80;;;;;;4977300;28;20451;-71
2022/02/01 09:03:49;;;;;;;5.32;1.80;;;3.30;92.70;;;;;;4983877;28;20454;-71
2022/02/01 09:06:15;;;;;;;7.72;2.08;;;3.30;92.50;;;;;;4978395;28;20034;-71
2022/02/01 09:08:40;;;;;;;9.02;2.55;;;3.30;92.40;;;;;;4983878;28;20065;-71
2022/02/01 09:11:07;;;;;;;11.55;2.45;;;3.40;92.30;;;;;;4977545;28;20043;-71
2022/02/01 09:13:33;;;;;;;10.00;2.25;;;3.40;92.20;;;;;;4992142;28;20026;-71
2022/02/01 09:15:58;;;;;;;6.25;1.80;;;3.40;92.20;;;;;;4998022;28;20058;-71
2022/02/01 09:18:24;;;;;;;8.63;1.45;;;3.40;91.90;;;;;;4976133;28;20027;-71
2022/02/01 09:20:51;;;;;;;17.30;2.45;;;3.40;91.70;;;;;;4983711;28;20026;-71
2022/02/01 09:23:17;;;;;;;10.32;1.85;;;3.50;91.90;;;;;;4983471;28;20014;-71
2022/02/01 09:25:42;;;;;;;10.02;2.10;;;3.50;91.80;;;;;;4991208;28;20042;-71
2022/02/01 09:28:08;;;;;;;7.65;2.10;;;3.50;91.70;;;;;;4986288;28;20022;-71
2022/02/01 09:30:34;;;;;;;13.85;2.08;;;3.50;91.80;;;;;;4987305;28;20026;-71
2022/02/01 09:33:01;;;;;;;11.35;2.10;;;3.50;91.90;;;;;;4990333;28;20374;-71
2022/02/01 09:35:27;;;;;;;17.60;1.95;;;3.50;91.90;;;;;;4980194;28;20022;-71
2022/02/01 09:37:52;;;;;;;11.20;1.80;;;3.50;92.10;;;;;;4987839;28;20031;-71
2022/02/01 09:40:18;;;;;;;10.57;2.25;;;3.50;92.00;;;;;;4983529;28;20085;-71
2022/02/01 09:42:43;;;;;;;10.52;2.00;;;3.50;92.20;;;;;;4985679;28;20026;-71
2022/02/01 09:45:10;;;;;;;7.28;2.20;;;3.50;92.30;;;;;;4999077;28;20033;-71
2022/02/01 09:47:46;;;;;;;8.88;2.13;;;3.40;92.50;;;;;;4996974;28;20023;-71
2022/02/01 09:50:12;;;;;;;10.00;1.83;;;3.40;92.80;;;;;;4991830;28;20462;-71
2022/02/01 09:52:39;;;;;;;14.05;2.35;;;3.40;93.00;;;;;;4985693;28;20581;-70
2022/02/01 09:55:07;;;;;;;14.60;2.80;;;3.30;93.20;;;;;;4987845;28;20478;-70
2022/02/01 09:57:33;;;;;;;7.63;2.58;;;3.30;93.50;;;;;;4993137;28;20041;-71
2022/02/01 10:00:01;;;;;;;10.65;2.38;;;3.30;93.90;;;;;;4993184;28;20442;-70
2022/02/01 10:02:38;;;;;;;7.40;2.25;;;3.20;94.00;;;;;;5009091;28;20043;-70
2022/02/01 10:05:14;;;;;;;6.85;1.90;;;3.10;94.30;;;;;;4988841;28;20109;-71
2022/02/01 10:08:06;;;;;;;11.55;2.88;;;3.10;94.80;;;;;;4993616;28;20019;-71
2022/02/01 10:10:32;;;;;;;11.70;2.83;;;3.10;95.00;;;;;;4990191;28;20042;-71
2022/02/01 10:13:03;;;;;;;17.33;3.15;;;3.10;95.30;;;;;;5003293;28;20057;-71
2022/02/01 10:15:33;;;;;;;13.82;2.83;;;3.10;95.30;;;;;;4990037;28;20042;-71
2022/02/01 10:18:03;;;;;;;12.07;2.50;;;3.10;95.50;;;;;;4984173;28;20018;-71
2022/02/01 10:20:46;;;;;;;6.93;3.03;;;3.00;95.60;;;;;;4993817;28;20028;-71
2022/02/01 10:23:17;;;;;;;13.10;3.08;;;3.10;95.80;;;;;;4986356;28;20084;-71
2022/02/01 10:25:47;;;;;;;;;;;3.10;95.80;;;;;;4995503;28;20038;-71
2022/02/01 10:28:12;;;;;;;11.68;3.08;;;3.10;95.90;;;;;;4990387;28;19910;-71
2022/02/01 10:30:43;;;;;;;11.68;2.85;;;3.10;96.00;;;;;;4995350;28;20528;-71
2022/02/01 10:33:18;;;;;;;11.60;3.47;;;3.10;96.10;;;;;;4989108;28;20029;-71
2022/02/01 10:35:57;;;;;;;17.40;3.80;;;3.20;96.10;;;;;;4998677;28;20030;-71
2022/02/01 10:38:30;;;;;;;9.35;2.58;;;3.20;96.20;;;;;;4992933;28;20023;-71
2022/02/01 10:40:56;;;;;;;8.00;3.35;;;3.20;96.20;;;;;;4983566;28;20362;-71
2022/02/01 10:43:24;;;;;;;10.95;3.35;;;3.20;96.20;;;;;;4988742;28;20085;-71
2022/02/01 10:45:52;;;;;;;10.07;3.08;;;3.20;96.20;;;;;;4991459;28;20026;-71
2022/02/01 10:48:25;;;;;;;9.77;3.13;;;3.20;96.30;;;;;;4982251;28;20034;-70
2022/02/01 10:51:02;;;;;;;13.38;3.15;;;3.20;96.30;;;;;;4986925;28;20026;-71
2022/02/01 10:53:27;;;;;;;8.98;3.45;;;3.30;96.40;;;;;;4983452;28;20032;-71
2022/02/01 10:55:54;;;;;;;9.60;3.42;;;3.30;96.50;;;;;;4989876;28;20034;-71
2022/02/01 10:58:20;;;;;;;8.20;3.80;;;3.30;96.50;;;;;;4994054;28;20073;-71
2022/02/01 11:00:47;;;;;;;7.22;3.35;;;3.40;96.60;;;;;;4996156;28;20117;-71
2022/02/01 11:03:14;;;;;;;7.28;2.67;;;3.30;96.60;;;;;;4988314;28;20023;-71
2022/02/01 11:05:48;;;;;;;4.80;2.65;;;3.40;96.60;;;;;;4984483;28;20123;-71
2022/02/01 11:08:16;;;;;;;5.53;3.03;;;3.40;96.60;;;;;;4993512;28;20027;-71
2022/02/01 11:10:47;;;;;;;7.93;3.17;;;3.50;96.70;;;;;;4981024;28;20110;-71
2022/02/01 11:13:14;;;;;;;6.95;3.40;;;3.40;96.70;;;;;;4989084;28;20062;-71
2022/02/01 11:15:40;;;;;;;5.80;3.28;;;3.50;96.80;;;;;;4994066;28;20049;-71
2022/02/01 11:18:16;;;;;;;8.32;3.47;;;3.50;96.70;;;;;;4980434;28;20482;-70
2022/02/01 11:20:47;;;;;;;7.90;4.20;;;3.60;96.80;;;;;;4997128;28;20029;-71
2022/02/01 11:23:21;;;;;;;8.27;4.38;;;3.60;96.80;;;;;;4993158;28;20038;-71
2022/02/01 11:25:51;;;;;;;9.10;4.35;;;3.60;96.80;;;;;;4992409;28;20042;-71
2022/02/01 11:28:37;;;;;;;13.13;4.95;;;3.60;96.90;;;;;;4992893;28;20026;-71
2022/02/01 11:31:03;;;;;;;8.93;4.28;;;3.70;96.90;;;;;;4989058;28;20061;-71
2022/02/01 11:33:55;;;;;;;5.07;3.03;;;3.70;96.90;;;;;;4985759;28;20014;-71
2022/02/01 11:36:21;;;;;;;8.10;3.67;;;3.70;96.90;;;;;;4984999;28;20104;-71
2022/02/01 11:38:58;;;;;;;8.60;4.68;;;3.80;96.90;;;;;;4986959;28;20023;-71
2022/02/01 11:41:36;;;;;;;6.70;3.45;;;3.80;96.90;;;;;;4978907;28;20101;-71
2022/02/01 11:44:08;;;;;;;9.63;4.70;;;3.80;96.90;;;;;;4987465;28;20038;-71
2022/02/01 11:46:34;;;;;;;9.30;4.90;;;3.90;97.00;;;;;;4993227;28;20414;-71
2022/02/01 11:49:01;;;;;;;7.75;4.82;;;3.90;97.00;;;;;;4989856;28;20034;-71
2022/02/01 11:51:28;;;;;;;9.52;5.35;;;4.00;97.00;;;;;;4985069;28;20061;-71
2022/02/01 11:53:58;;;;;;;8.90;5.32;;;4.00;97.00;;;;;;4987427;28;20022;-71
2022/02/01 11:56:37;;;;;;;6.53;4.53;;;4.10;97.00;;;;;;4999774;28;20038;-71
2022/02/01 11:59:07;;;;;;;7.80;5.47;;;4.10;97.00;;;;;;4990602;28;20026;-71
2022/02/01 12:01:35;;;;;;;12.43;5.05;;;4.10;97.00;;;;;;4989903;28;20026;-70
2022/02/01 12:04:17;;;;;;;9.35;5.05;;;4.20;96.90;;;;;;4984779;28;20026;-70
2022/02/01 12:07:06;;;;;;;8.05;4.63;;;4.20;96.90;;;;;;4980327;28;20022;-70
2022/02/01 12:09:31;;;;;;;5.55;3.35;;;4.20;96.90;;;;;;4979889;28;20042;-70
2022/02/01 12:11:59;;;;;;;7.22;4.50;;;4.20;96.90;;;;;;4985207;28;20034;-70
2022/02/01 12:14:26;;;;;;;4.20;2.88;;;4.30;97.00;;;;;;4986834;28;20109;-71
2022/02/01 12:16:53;;;;;;;8.07;4.88;;;4.40;97.00;;;;;;4981045;28;20478;-71
2022/02/01 12:19:37;;;;;;;6.03;4.47;;;4.40;96.90;;;;;;4982865;28;20430;-70
2022/02/01 12:22:31;;;;;;;4.45;2.97;;;4.40;96.90;;;;;;4979101;28;20093;-71
2022/02/01 12:25:12;;;;;;;6.05;3.75;;;4.50;97.00;;;;;;4985707;28;20370;-70
2022/02/01 12:27:39;;;;;;;;;;;4.50;97.00;;;;;;4989871;28;20026;-70
2022/02/01 12:30:07;;;;;;;5.13;2.63;;;4.60;97.10;;;;;;4983448;28;19910;-71
2022/02/01 12:32:34;;;;;;;6.68;3.97;;;4.60;97.00;;;;;;4986201;28;20121;-70
2022/02/01 12:34:59;;;;;;;7.13;4.72;;;4.60;97.00;;;;;;4984179;28;20458;-70
2022/02/01 12:37:25;;;;;;;5.80;3.80;;;4.60;97.10;;;;;;4988199;28;20058;-70
2022/02/01 12:40:08;;;;;;;6.75;4.03;;;4.70;97.10;;;;;;4979858;28;20102;-70
2022/02/01 12:42:42;;;;;;;6.60;4.50;;;4.80;97.20;;;;;;4983788;28;20033;-70
2022/02/01 12:48:00;;;;;;;6.25;3.65;;;4.80;97.20;;;;;;4984781;28;20038;-70
2022/02/01 12:50:26;;;;;;;4.95;3.13;;;4.80;97.20;;;;;;4981709;28;20031;-70
2022/02/01 12:53:01;;;;;;;5.15;3.70;;;5.00;97.20;;;;;;4982251;28;22375;-70
2022/02/01 12:55:27;;;;;;;8.73;4.15;;;5.00;97.10;;;;;;4981528;28;20463;-70
2022/02/01 12:57:54;;;;;;;6.95;3.63;;;5.10;97.00;;;;;;4982885;28;20107;-70
2022/02/01 13:00:23;;;;;;;7.18;4.20;;;5.20;96.90;;;;;;4987344;28;20481;-70
2022/02/01 13:02:55;;;;;;;5.82;3.83;;;5.30;96.90;;;;;;4973437;28;20042;-70
2022/02/01 13:05:21;;;;;;;7.65;5.13;;;5.30;96.90;;;;;;4982041;28;20042;-70
2022/02/01 13:20:04;;;;;;;6.93;4.38;;;5.60;96.90;;;;;;4992382;28;20049;-70
2022/02/01 13:21:22;;;;;;;7.15;4.20;;;5.60;96.90;;;;;;4978030;28;20030;-70
2022/02/01 13:23:49;;;;;;;6.25;3.95;;;5.70;96.90;;;;;;4984888;28;20022;-70
2022/02/01 13:26:16;;;;;;;6.90;3.85;;;5.80;96.80;;;;;;4988656;28;20405;-70
2022/02/01 13:28:54;;;;;;;7.10;3.70;;;5.80;96.80;;;;;;4988603;28;20429;-70
2022/02/01 13:31:25;;;;;;;5.10;3.22;;;5.80;96.80;;;;;;4986461;28;20038;-70
2022/02/01 13:33:58;;;;;;;3.80;2.50;;;5.80;96.70;;;;;;4986732;28;20054;-70
2022/02/01 13:36:24;;;;;;;8.48;3.40;;;5.90;96.70;;;;;;4983452;28;20027;-69
2022/02/01 13:38:52;;;;;;;6.38;2.80;;;5.90;96.70;;;;;;4981514;28;20058;-70
2022/02/01 13:41:20;;;;;;;2.67;2.17;;;5.90;96.70;;;;;;4992455;28;20426;-70
2022/02/01 13:43:51;;;;;;;2.88;1.83;;;6.00;96.70;;;;;;4985669;28;20050;-70
2022/02/01 13:46:21;;;;;;;;;;;6.00;96.60;;;;;;4989928;28;20077;-70
2022/02/01 13:49:08;;;;;;;7.13;2.33;;;6.10;96.60;;;;;;4991575;28;20005;-70
2022/02/01 13:51:51;;;;;;;6.78;1.98;;;6.10;96.60;;;;;;4983832;28;20108;-70
2022/02/01 13:54:17;;;;;;;2.78;1.48;;;6.10;96.60;;;;;;4987182;28;20033;-70
2022/02/01 13:56:48;;;;;;;3.92;1.80;;;6.10;96.60;;;;;;4986720;28;20039;-74
2022/02/01 13:59:19;;;;;;;7.65;2.15;;;6.20;96.60;;;;;;4986386;28;20026;-71
2022/02/01 14:01:45;;;;;;;7.35;2.60;;;6.20;96.60;;;;;;4987297;28;20033;-72
2022/02/01 14:04:16;;;;;;;8.50;2.00;;;6.30;96.50;;;;;;5005411;28;20089;-72
2022/02/01 14:06:49;;;;;;;9.40;1.80;;;6.30;96.50;;;;;;4981166;28;20060;-71
2022/02/01 14:12:03;;;;;;;10.20;2.03;;;6.30;96.50;;;;;;4993534;28;20069;-71
2022/02/01 14:25:45;;;;;;;13.85;3.15;;;6.50;96.50;;;;;;4990671;28;20077;-71
2022/02/01 14:28:20;;;;;;;5.00;1.63;;;6.50;96.50;;;;;;4982400;28;20031;-71
2022/02/01 14:36:16;;;;;;;13.07;2.80;;;6.60;96.20;;;;;;4989019;28;20033;-71
2022/02/01 14:46:55;;;;;;;9.00;2.22;;;6.50;94.60;;;;;;4984895;28;20089;-71
2022/02/01 14:49:24;;;;;;;12.50;2.10;;;6.60;94.20;;;;;;4985905;28;20035;-71